Time;durP1;ratioP1;P1;durP2;ratioP2;P2;SDS_P1;SDS_P2;PMS_P1;PMS_P2;Temp;Humidity;BMP_temperature;BMP_pressure;BME280_temperature;BME280_humidity;BME280_pressure;Samples;Min_cycle;Max_cycle;Signal;HPM_P1;HPM_P2
2022/07/21 00:00:50;;;;;;;4.38;2.80;;;;;;;20.75;nan;-24394.00;4978496;28;20286;-60
2022/07/21 00:03:16;;;;;;;3.95;2.65;;;;;;;20.90;nan;-24398.03;4978133;28;20188;-59
2022/07/21 00:05:41;;;;;;;4.55;3.00;;;;;;;20.61;nan;-24390.13;4979607;28;20247;-58
2022/07/21 00:08:07;;;;;;;4.43;2.92;;;;;;;20.77;nan;-24394.56;4978455;28;20751;-58
2022/07/21 00:10:32;;;;;;;4.03;2.83;;;;;;;20.35;nan;-24382.91;4980583;28;20191;-60
2022/07/21 00:12:58;;;;;;;4.53;3.03;;;;;;;20.55;nan;-24388.59;4978523;28;20200;-60
2022/07/21 00:15:26;;;;;;;5.82;3.55;;;;;;;20.13;nan;-24377.06;4980505;28;20272;-59
2022/07/21 00:17:52;;;;;;;5.93;3.13;;;;;;;20.29;nan;-24381.38;4978156;28;20690;-59
2022/07/21 00:20:21;;;;;;;5.78;2.92;;;;;;;20.29;nan;-24381.50;4983192;28;20190;-61
2022/07/21 00:22:47;;;;;;;5.35;3.30;;;;;;;19.92;nan;-24371.09;4975886;28;20201;-60
2022/07/21 00:25:14;;;;;;;5.28;3.28;;;;;;;20.21;nan;-24379.28;4980985;28;20207;-59
2022/07/21 00:27:40;;;;;;;5.75;3.40;;;;;;;20.28;nan;-24381.09;4979118;28;20208;-58
2022/07/21 00:30:16;;;;;;;4.75;3.13;;;;;;;20.18;nan;-24378.47;4976178;28;20657;-60
2022/07/21 00:32:45;;;;;;;3.83;2.85;;;;;;;20.11;nan;-24376.38;4976213;28;20176;-59
2022/07/21 00:35:27;;;;;;;4.72;2.95;;;;;;;20.05;nan;-24374.84;4973969;28;20200;-61
2022/07/21 00:37:57;;;;;;;4.47;2.75;;;;;;;20.05;nan;-24374.84;4976828;28;20656;-59
2022/07/21 00:40:30;;;;;;;3.67;2.92;;;;;;;20.08;nan;-24375.53;4977869;28;20661;-59
2022/07/21 00:43:05;;;;;;;4.10;3.08;;;;;;;20.07;nan;-24375.41;4975073;28;20185;-61
2022/07/21 00:45:42;;;;;;;4.32;3.00;;;;;;;19.90;nan;-24370.53;4975184;28;20223;-61
2022/07/21 00:48:40;;;;;;;4.97;3.15;;;;;;;19.98;nan;-24372.91;4973091;28;20548;-60
2022/07/21 00:51:14;;;;;;;4.03;2.88;;;;;;;20.03;nan;-24374.16;4977194;28;20240;-59
2022/07/21 00:53:50;;;;;;;3.88;2.40;;;;;;;19.92;nan;-24371.09;4972935;28;20192;-59
2022/07/21 00:56:27;;;;;;;4.53;2.85;;;;;;;19.77;nan;-24367.06;4978014;28;20206;-61
2022/07/21 00:59:22;;;;;;;4.88;3.15;;;;;;;19.73;nan;-24365.94;4978454;28;20188;-60
2022/07/21 01:01:47;;;;;;;4.88;2.90;;;;;;;19.73;nan;-24365.94;4980972;28;20721;-59
2022/07/21 01:04:13;;;;;;;2.78;2.30;;;;;;;19.81;nan;-24368.31;4978172;28;20181;-60
2022/07/21 01:06:38;;;;;;;4.78;2.92;;;;;;;19.73;nan;-24365.94;4978834;28;20180;-58
2022/07/21 01:09:04;;;;;;;4.28;3.00;;;;;;;19.53;nan;-24360.38;4979065;28;20735;-60
2022/07/21 01:11:30;;;;;;;3.92;2.60;;;;;;;19.59;nan;-24362.19;4977666;28;20647;-59
2022/07/21 01:13:56;;;;;;;5.00;2.92;;;;;;;19.34;nan;-24355.38;4975244;28;20181;-59
2022/07/21 01:16:21;;;;;;;4.90;3.05;;;;;;;19.31;nan;-24354.53;4975807;28;20626;-59
2022/07/21 01:19:08;;;;;;;4.35;2.65;;;;;;;19.64;nan;-24363.44;4975788;28;20181;-59
2022/07/21 01:21:46;;;;;;;3.47;2.67;;;;;;;19.72;nan;-24365.69;4980760;28;20247;-58
2022/07/21 01:24:31;;;;;;;4.13;2.90;;;;;;;19.71;nan;-24365.41;4973238;28;20188;-60
2022/07/21 01:26:56;;;;;;;3.55;2.58;;;;;;;18.54;nan;-24333.38;4974146;28;20653;-59
2022/07/21 01:29:35;;;;;;;3.33;2.70;;;;;;;19.61;nan;-24362.63;4974686;28;20208;-59
2022/07/21 01:32:03;;;;;;;3.47;2.70;;;;;;;19.44;nan;-24358.03;4976805;28;20236;-58
2022/07/21 01:34:29;;;;;;;4.50;2.40;;;;;;;19.28;nan;-24353.56;4978545;28;20236;-58
2022/07/21 01:36:55;;;;;;;4.10;2.70;;;;;;;19.45;nan;-24358.16;4973578;28;20188;-59
2022/07/21 01:42:04;;;;;;;3.10;2.58;;;;;;;19.37;nan;-24356.06;4976591;28;20862;-59
2022/07/21 01:44:30;;;;;;;3.67;2.92;;;;;;;19.25;nan;-24352.88;4982868;28;20180;-60
2022/07/21 01:46:58;;;;;;;3.00;2.63;;;;;;;19.46;nan;-24358.59;4981397;28;20248;-60
2022/07/21 01:49:33;;;;;;;3.40;2.63;;;;;;;19.45;nan;-24358.16;4979293;28;20216;-60
2022/07/21 01:51:59;;;;;;;3.80;2.80;;;;;;;19.51;nan;-24359.84;4981358;28;20188;-59
2022/07/21 01:54:25;;;;;;;4.25;2.75;;;;;;;19.26;nan;-24353.00;4983616;28;20184;-60
2022/07/21 01:57:04;;;;;;;4.05;2.92;;;;;;;19.41;nan;-24357.19;4980438;28;20196;-60
2022/07/21 01:59:31;;;;;;;5.10;3.10;;;;;;;19.37;nan;-24356.22;4980557;28;20188;-63
2022/07/21 02:02:09;;;;;;;3.33;2.42;;;;;;;19.24;nan;-24352.59;4978906;28;20217;-61
2022/07/21 02:04:36;;;;;;;3.22;2.65;;;;;;;19.20;nan;-24351.47;4981266;28;20191;-59
2022/07/21 02:07:13;;;;;;;3.58;2.40;;;;;;;19.16;nan;-24350.38;4976769;28;20240;-59
2022/07/21 02:09:43;;;;;;;5.47;3.00;;;;;;;19.01;nan;-24346.19;4979481;28;20212;-60
2022/07/21 02:12:10;;;;;;;3.53;2.67;;;;;;;19.16;nan;-24350.38;4982960;28;20679;-60
2022/07/21 02:14:41;;;;;;;3.25;2.55;;;;;;;19.12;nan;-24349.25;4978771;28;20235;-63
2022/07/21 02:17:21;;;;;;;2.90;2.50;;;;;;;19.14;nan;-24349.81;4978535;28;20191;-59
2022/07/21 02:19:47;;;;;;;3.40;2.65;;;;;;;19.42;nan;-24357.47;4983735;28;20676;-57
2022/07/21 02:22:12;;;;;;;3.72;2.78;;;;;;;19.41;nan;-24357.19;4973116;28;20189;-58
2022/07/21 02:24:39;;;;;;;3.50;2.75;;;;;;;19.47;nan;-24358.72;4980469;28;20172;-58
2022/07/21 02:27:33;;;;;;;4.38;3.10;;;;;;;19.40;nan;-24357.06;4980374;28;20272;-61
2022/07/21 02:30:02;;;;;;;3.70;2.50;;;;;;;19.39;nan;-24356.78;4978269;28;20265;-61
2022/07/21 02:32:31;;;;;;;3.00;2.60;;;;;;;19.26;nan;-24353.16;4982754;28;20181;-60
2022/07/21 02:34:56;;;;;;;4.43;2.58;;;;;;;19.16;nan;-24350.22;4979491;28;20186;-57
2022/07/21 02:37:22;;;;;;;2.95;2.55;;;;;;;18.93;nan;-24344.13;4982267;28;20204;-59
2022/07/21 02:39:48;;;;;;;3.03;2.47;;;;;;;19.01;nan;-24346.06;4980146;28;20768;-59
2022/07/21 02:42:13;;;;;;;3.10;2.70;;;;;;;18.64;nan;-24336.03;4980528;28;20633;-59
2022/07/21 02:44:39;;;;;;;3.33;2.50;;;;;;;18.58;nan;-24334.38;4981043;28;20207;-59
2022/07/21 02:47:10;;;;;;;3.05;2.65;;;;;;;18.78;nan;-24339.94;4976022;28;20229;-59
2022/07/21 02:49:47;;;;;;;4.60;3.00;;;;;;;18.73;nan;-24338.53;4974379;28;20652;-63
2022/07/21 02:52:25;;;;;;;3.67;2.70;;;;;;;18.66;nan;-24336.59;4982376;28;20189;-61
2022/07/21 02:54:55;;;;;;;4.25;3.20;;;;;;;18.62;nan;-24335.47;4974029;28;20197;-60
2022/07/21 02:57:34;;;;;;;3.72;2.90;;;;;;;18.55;nan;-24333.53;4980967;28;20204;-60
2022/07/21 03:00:00;;;;;;;5.32;2.95;;;;;;;18.29;nan;-24326.41;4979455;28;20282;-58
2022/07/21 03:02:25;;;;;;;4.40;3.30;;;;;;;18.34;nan;-24327.69;4974925;28;20239;-59
2022/07/21 03:04:50;;;;;;;3.67;2.72;;;;;;;18.38;nan;-24328.78;4979759;28;20189;-59
2022/07/21 03:07:16;;;;;;;4.03;2.92;;;;;;;18.39;nan;-24329.06;4979178;28;20181;-59
2022/07/21 03:09:41;;;;;;;4.30;2.88;;;;;;;18.42;nan;-24330.03;4982620;28;20707;-59
2022/07/21 03:12:07;;;;;;;3.75;2.88;;;;;;;18.88;nan;-24342.72;4982063;28;20180;-58
2022/07/21 03:14:32;;;;;;;4.95;3.10;;;;;;;19.16;nan;-24350.22;4979421;28;20247;-57
2022/07/21 03:17:00;;;;;;;3.55;2.70;;;;;;;19.10;nan;-24348.56;4979304;28;20653;-58
2022/07/21 03:19:26;;;;;;;3.45;3.08;;;;;;;19.88;nan;-24369.97;4979409;28;20173;-58
2022/07/21 03:21:51;;;;;;;4.82;2.90;;;;;;;20.06;nan;-24375.13;4977299;28;20192;-59
2022/07/21 03:24:17;;;;;;;4.05;2.95;;;;;;;16.61;nan;-24280.09;4976752;28;20562;-59
2022/07/21 03:26:42;;;;;;;4.30;3.08;;;;;;;20.50;nan;-24387.06;4977748;28;20185;-59
2022/07/21 03:29:09;;;;;;;5.18;3.28;;;;;;;21.10;nan;-24403.56;4976742;28;20212;-59
2022/07/21 03:31:35;;;;;;;3.88;2.75;;;;;;;21.27;nan;-24408.16;4978166;28;20673;-59
2022/07/21 03:34:01;;;;;;;3.75;2.80;;;;;;;21.67;nan;-24419.25;4976533;28;20173;-59
2022/07/21 03:36:26;;;;;;;4.68;2.63;;;;;;;22.56;nan;-24443.59;4978242;28;20653;-59
2022/07/21 03:38:51;;;;;;;4.50;2.60;;;;;;;22.93;nan;-24453.72;4977968;28;20246;-59
2022/07/21 03:41:17;;;;;;;4.95;2.88;;;;;;;23.46;nan;-24468.22;4977586;28;20570;-59
2022/07/21 03:43:42;;;;;;;3.42;2.50;;;;;;;24.06;nan;-24484.63;4975298;28;20256;-58
2022/07/21 03:46:08;;;;;;;5.97;3.20;;;;;;;23.94;nan;-24481.31;4976798;28;20272;-60
2022/07/21 03:48:34;;;;;;;4.82;2.80;;;;;;;25.46;nan;-24522.66;4978480;28;20216;-59
2022/07/21 03:50:59;;;;;;;4.25;2.95;;;;;;;26.34;nan;-24546.59;4976783;28;20320;-60
2022/07/21 03:53:25;;;;;;;4.53;3.15;;;;;;;26.73;nan;-24557.16;4978337;28;20287;-60
2022/07/21 03:55:50;;;;;;;4.28;2.90;;;;;;;27.19;nan;-24569.63;4976630;28;20181;-60
2022/07/21 03:58:16;;;;;;;6.15;3.20;;;;;;;27.19;nan;-24569.63;4978081;28;20184;-60
2022/07/21 04:00:44;;;;;;;4.55;2.97;;;;;;;28.31;nan;-24599.91;4975982;28;20200;-60
2022/07/21 04:03:10;;;;;;;4.28;2.95;;;;;;;28.95;nan;-24617.41;4976763;28;20177;-60
2022/07/21 04:05:36;;;;;;;4.82;3.10;;;;;;;29.55;nan;-24633.53;4975919;28;20184;-59
2022/07/21 04:08:02;;;;;;;4.93;3.10;;;;;;;29.29;nan;-24626.56;4974996;28;20185;-59
2022/07/21 04:10:31;;;;;;;3.75;2.85;;;;;;;29.31;nan;-24627.00;4977260;28;20230;-59
2022/07/21 04:12:58;;;;;;;8.65;3.55;;;;;;;29.31;nan;-24627.00;4977066;28;20613;-58
2022/07/21 04:15:23;;;;;;;5.65;2.85;;;;;;;29.67;nan;-24636.81;4977135;28;20200;-59
2022/07/21 04:17:50;;;;;;;5.10;3.08;;;;;;;30.04;nan;-24646.63;4977394;28;20553;-59
2022/07/21 04:20:16;;;;;;;4.57;3.20;;;;;;;30.14;nan;-24649.38;4977377;28;20177;-60
2022/07/21 04:22:43;;;;;;;4.30;2.85;;;;;;;30.30;nan;-24653.72;4975528;28;20178;-59
2022/07/21 04:25:09;;;;;;;3.47;2.85;;;;;;;29.71;nan;-24637.75;4976290;28;20177;-60
2022/07/21 04:27:36;;;;;;;4.93;2.80;;;;;;;29.75;nan;-24639.00;4974834;28;20193;-59
2022/07/21 04:30:04;;;;;;;5.15;3.20;;;;;;;29.71;nan;-24637.75;4975280;28;20213;-59
2022/07/21 04:32:29;;;;;;;5.78;3.42;;;;;;;29.71;nan;-24637.75;4976211;28;20572;-59
2022/07/21 04:34:55;;;;;;;4.95;3.28;;;;;;;30.38;nan;-24655.78;4976009;28;20185;-60
2022/07/21 04:37:21;;;;;;;5.10;3.35;;;;;;;30.25;nan;-24652.34;4976329;28;20188;-59
2022/07/21 04:39:47;;;;;;;4.07;3.22;;;;;;;;;;4976186;28;20355;-59
2022/07/21 04:42:12;;;;;;;6.28;3.30;;;;;;;30.04;nan;-24646.63;4975425;28;20377;-60
2022/07/21 04:44:38;;;;;;;5.55;2.90;;;;;;;29.95;nan;-24644.31;4975197;28;20181;-59
2022/07/21 04:47:04;;;;;;;4.53;2.92;;;;;;;30.14;nan;-24649.38;4975872;28;20200;-59
2022/07/21 04:49:29;;;;;;;4.10;2.92;;;;;;;29.94;nan;-24643.91;4976094;28;20207;-61
2022/07/21 04:51:55;;;;;;;4.10;2.65;;;;;;;29.94;nan;-24643.91;4973614;28;20179;-62
2022/07/21 04:54:21;;;;;;;6.85;3.25;;;;;;;29.24;nan;-24625.06;4973355;28;20184;-59
2022/07/21 04:56:46;;;;;;;6.35;2.85;;;;;;;29.45;nan;-24630.81;4974703;28;20656;-59
2022/07/21 04:59:12;;;;;;;4.13;3.30;;;;;;;30.07;nan;-24647.44;4975496;28;20219;-60
2022/07/21 05:01:38;;;;;;;3.63;2.65;;;;;;;30.02;nan;-24646.22;4973392;28;20189;-59
2022/07/21 05:04:05;;;;;;;6.40;3.10;;;;;;;29.94;nan;-24643.91;4977223;28;20557;-60
2022/07/21 05:06:30;;;;;;;4.03;2.58;;;;;;;29.97;nan;-24644.88;4976123;28;21155;-59
2022/07/21 05:08:56;;;;;;;6.35;2.70;;;;;;;29.97;nan;-24644.88;4973784;28;20552;-60
2022/07/21 05:11:21;;;;;;;6.13;2.75;;;;;;;30.33;nan;-24654.41;4977388;28;20592;-61
2022/07/21 05:13:47;;;;;;;4.05;2.80;;;;;;;30.07;nan;-24647.44;4974950;28;20235;-60
2022/07/21 05:16:12;;;;;;;4.28;3.10;;;;;;;30.21;nan;-24651.28;4977672;28;20250;-59
2022/07/21 05:18:38;;;;;;;3.92;2.88;;;;;;;30.07;nan;-24647.44;4978034;28;20182;-60
2022/07/21 05:21:03;;;;;;;4.97;2.78;;;;;;;29.37;nan;-24628.75;4977105;28;20580;-61
2022/07/21 05:23:29;;;;;;;4.35;2.97;;;;;;;29.35;nan;-24628.06;4979189;28;20338;-60
2022/07/21 05:25:54;;;;;;;3.80;2.85;;;;;;;29.72;nan;-24638.03;4973973;28;20192;-60
2022/07/21 05:28:20;;;;;;;6.18;2.90;;;;;;;29.73;nan;-24638.31;4976075;28;20225;-59
2022/07/21 05:30:45;;;;;;;5.53;2.72;;;;;;;29.65;nan;-24636.25;4978839;28;20192;-59
2022/07/21 05:33:11;;;;;;;5.40;3.08;;;;;;;29.42;nan;-24630.13;4974801;28;20206;-58
2022/07/21 05:35:36;;;;;;;8.65;2.97;;;;;;;28.93;nan;-24616.88;4978530;28;20176;-60
2022/07/21 05:38:02;;;;;;;5.60;3.30;;;;;;;28.75;nan;-24611.81;4976488;28;20317;-59
2022/07/21 05:40:28;;;;;;;6.90;3.00;;;;;;;28.59;nan;-24607.56;4976431;28;20208;-59
2022/07/21 05:42:53;;;;;;;5.07;3.30;;;;;;;28.79;nan;-24613.03;4975762;28;20625;-61
2022/07/21 05:45:18;;;;;;;9.18;3.70;;;;;;;28.47;nan;-24604.28;4973472;28;20172;-62
2022/07/21 05:47:44;;;;;;;10.15;3.65;;;;;;;28.35;nan;-24601.16;4977343;28;20626;-59
2022/07/21 05:50:10;;;;;;;4.55;3.20;;;;;;;28.16;nan;-24595.94;4976310;28;20201;-60
2022/07/21 05:52:35;;;;;;;6.05;3.58;;;;;;;27.62;nan;-24581.44;4977946;28;20683;-59
2022/07/21 05:55:01;;;;;;;5.40;3.55;;;;;;;27.81;nan;-24586.50;4976585;28;20188;-60
2022/07/21 05:57:26;;;;;;;5.85;3.25;;;;;;;27.25;nan;-24571.41;4977394;28;20178;-59
2022/07/21 05:59:52;;;;;;;5.45;3.92;;;;;;;27.53;nan;-24578.81;4976925;28;20181;-59
2022/07/21 06:02:18;;;;;;;6.03;3.28;;;;;;;27.53;nan;-24578.81;4980372;28;20534;-59
2022/07/21 06:04:43;;;;;;;8.20;4.15;;;;;;;27.21;nan;-24570.19;4977234;28;20264;-61
2022/07/21 06:07:09;;;;;;;7.78;3.35;;;;;;;27.21;nan;-24570.19;4976862;28;20188;-59
2022/07/21 06:09:35;;;;;;;5.90;3.55;;;;;;;27.23;nan;-24570.75;4976101;28;20205;-59
2022/07/21 06:12:00;;;;;;;4.97;3.60;;;;;;;27.62;nan;-24581.28;4976458;28;20232;-59
2022/07/21 06:14:26;;;;;;;4.95;3.40;;;;;;;27.35;nan;-24574.03;4973498;28;20181;-59
2022/07/21 06:16:51;;;;;;;5.10;3.42;;;;;;;27.67;nan;-24582.66;4974400;28;20255;-60
2022/07/21 06:19:17;;;;;;;4.80;3.53;;;;;;;27.76;nan;-24585.13;4974122;28;20185;-60
2022/07/21 06:21:43;;;;;;;5.55;3.53;;;;;;;27.63;nan;-24581.56;4971666;28;20280;-60
2022/07/21 06:24:09;;;;;;;6.07;3.35;;;;;;;27.66;nan;-24582.53;4976307;28;20664;-59
2022/07/21 06:26:35;;;;;;;5.93;3.10;;;;;;;27.84;nan;-24587.31;4975540;28;20732;-59
2022/07/21 06:29:01;;;;;;;4.75;3.10;;;;;;;27.94;nan;-24590.06;4976601;28;20300;-59
2022/07/21 06:31:26;;;;;;;5.07;3.08;;;;;;;27.78;nan;-24585.69;4979710;28;20181;-60
2022/07/21 06:33:52;;;;;;;5.28;3.50;;;;;;;28.24;nan;-24598.13;4979273;28;20676;-60
2022/07/21 06:36:17;;;;;;;5.00;2.80;;;;;;;27.90;nan;-24588.97;4981456;28;20201;-61
2022/07/21 06:38:44;;;;;;;3.33;2.55;;;;;;;27.90;nan;-24588.97;4980249;28;20606;-58
2022/07/21 06:41:11;;;;;;;3.90;2.75;;;;;;;28.43;nan;-24603.34;4976877;28;20583;-60
2022/07/21 06:43:37;;;;;;;4.13;2.80;;;;;;;28.64;nan;-24608.94;4979189;28;20640;-60
2022/07/21 06:46:03;;;;;;;3.17;2.67;;;;;;;28.29;nan;-24599.38;4979677;28;20276;-59
2022/07/21 06:48:28;;;;;;;4.38;3.13;;;;;;;28.45;nan;-24603.75;4981238;28;20239;-60
2022/07/21 06:50:55;;;;;;;3.38;2.50;;;;;;;28.99;nan;-24618.50;4978918;28;20209;-60
2022/07/21 06:53:22;;;;;;;4.45;3.05;;;;;;;28.54;nan;-24606.22;4982268;28;20633;-59
2022/07/21 06:55:49;;;;;;;4.78;3.17;;;;;;;28.60;nan;-24607.84;4979095;28;20229;-59
2022/07/21 06:58:17;;;;;;;3.72;2.78;;;;;;;28.70;nan;-24610.59;4979677;28;20244;-60
2022/07/21 07:00:45;;;;;;;6.28;3.15;;;;;;;28.60;nan;-24607.84;4975815;28;20268;-59
2022/07/21 07:03:11;;;;;;;4.45;3.08;;;;;;;29.16;nan;-24622.88;4974947;28;20228;-59
2022/07/21 07:05:37;;;;;;;6.03;3.33;;;;;;;29.12;nan;-24621.78;4975351;28;20482;-60
2022/07/21 07:08:04;;;;;;;5.50;3.05;;;;;;;29.21;nan;-24624.25;4976178;28;20662;-60
2022/07/21 07:10:29;;;;;;;5.38;2.92;;;;;;;29.35;nan;-24628.22;4976619;28;20626;-60
2022/07/21 07:12:55;;;;;;;5.85;3.25;;;;;;;29.29;nan;-24626.44;4976791;28;20268;-60
2022/07/21 07:15:23;;;;;;;4.93;3.17;;;;;;;29.35;nan;-24628.06;4972511;28;20183;-61
2022/07/21 07:17:48;;;;;;;6.93;3.17;;;;;;;29.22;nan;-24624.66;4978707;28;20601;-60
2022/07/21 07:20:14;;;;;;;4.53;2.95;;;;;;;29.18;nan;-24623.44;4973936;28;20203;-60
2022/07/21 07:22:39;;;;;;;3.65;2.83;;;;;;;;;;4969750;28;20561;-60
2022/07/21 07:25:06;;;;;;;6.38;3.40;;;;;;;29.32;nan;-24627.25;4975104;28;20180;-60
2022/07/21 07:27:31;;;;;;;6.63;3.28;;;;;;;29.91;nan;-24643.09;4975250;28;20178;-61
2022/07/21 07:29:56;;;;;;;4.15;3.20;;;;;;;29.61;nan;-24635.19;4974539;28;20224;-60
2022/07/21 07:32:22;;;;;;;6.50;3.25;;;;;;;30.06;nan;-24647.19;4976726;28;20212;-60
2022/07/21 07:34:47;;;;;;;4.85;3.13;;;;;;;30.06;nan;-24647.31;4976256;28;20703;-59
2022/07/21 07:37:13;;;;;;;5.22;3.42;;;;;;;30.11;nan;-24648.53;4977244;28;20199;-60
2022/07/21 07:39:39;;;;;;;4.03;3.10;;;;;;;30.11;nan;-24648.69;4980253;28;20739;-61
2022/07/21 07:42:05;;;;;;;4.65;2.95;;;;;;;30.35;nan;-24654.94;4979122;28;20671;-60
2022/07/21 07:44:31;;;;;;;4.50;3.00;;;;;;;30.31;nan;-24654.00;4978784;28;20176;-61
2022/07/21 07:46:57;;;;;;;4.43;2.78;;;;;;;30.29;nan;-24653.44;4976882;28;20548;-61
2022/07/21 07:49:22;;;;;;;5.35;3.22;;;;;;;30.40;nan;-24656.44;4974942;28;20830;-59
2022/07/21 07:51:48;;;;;;;3.63;2.85;;;;;;;30.15;nan;-24649.63;4975157;28;20667;-63
2022/07/21 07:54:14;;;;;;;3.88;2.88;;;;;;;30.34;nan;-24654.69;4974681;28;20563;-59
2022/07/21 07:56:40;;;;;;;3.85;2.88;;;;;;;30.68;nan;-24663.94;4974602;28;20173;-59
2022/07/21 07:59:05;;;;;;;4.38;3.00;;;;;;;30.68;nan;-24663.94;4973409;28;20272;-59
2022/07/21 08:01:31;;;;;;;4.28;2.70;;;;;;;30.88;nan;-24669.25;4977733;28;20176;-61
2022/07/21 08:03:56;;;;;;;4.63;2.85;;;;;;;30.66;nan;-24663.41;4976442;28;20190;-62
2022/07/21 08:06:22;;;;;;;4.00;2.80;;;;;;;30.66;nan;-24663.53;4974124;28;20662;-59
2022/07/21 08:08:47;;;;;;;3.70;2.80;;;;;;;30.87;nan;-24669.13;4973477;28;20202;-59
2022/07/21 08:11:13;;;;;;;4.68;2.70;;;;;;;30.77;nan;-24666.41;4974099;28;20199;-60
2022/07/21 08:13:39;;;;;;;4.45;3.10;;;;;;;31.16;nan;-24676.88;4974320;28;20645;-61
2022/07/21 08:16:04;;;;;;;4.10;2.95;;;;;;;31.31;nan;-24680.97;4974025;28;20585;-61
2022/07/21 08:18:30;;;;;;;3.00;2.50;;;;;;;31.22;nan;-24678.50;4988740;28;20188;-61
2022/07/21 08:20:55;;;;;;;5.63;3.50;;;;;;;31.26;nan;-24679.59;4974337;28;20169;-61
2022/07/21 08:23:21;;;;;;;3.83;2.72;;;;;;;31.41;nan;-24683.69;4974332;28;20191;-59
2022/07/21 08:25:46;;;;;;;3.53;2.60;;;;;;;31.52;nan;-24686.66;4983618;28;20236;-60
2022/07/21 08:28:12;;;;;;;3.58;2.70;;;;;;;31.52;nan;-24686.66;4979238;28;20211;-60
2022/07/21 08:30:38;;;;;;;5.20;2.45;;;;;;;29.18;nan;-24623.56;4978707;28;20192;-59
2022/07/21 08:33:04;;;;;;;3.10;2.22;;;;;;;28.94;nan;-24617.00;4976073;28;20197;-60
2022/07/21 08:35:31;;;;;;;2.97;2.15;;;;;;;32.11;nan;-24702.44;4980416;28;20219;-62
2022/07/21 08:38:05;;;;;;;4.32;2.58;;;;;;;31.99;nan;-24699.16;4977492;28;20184;-61
2022/07/21 08:40:38;;;;;;;3.17;2.55;;;;;;;32.20;nan;-24704.75;4979500;28;20262;-61
2022/07/21 08:43:06;;;;;;;3.20;2.30;;;;;;;32.40;nan;-24710.31;4975248;28;20198;-60
2022/07/21 08:45:32;;;;;;;3.60;2.65;;;;;;;32.42;nan;-24710.72;4977876;28;20180;-61
2022/07/21 08:47:59;;;;;;;2.90;2.28;;;;;;;32.30;nan;-24707.59;4973191;28;20244;-61
2022/07/21 08:50:27;;;;;;;3.05;2.45;;;;;;;32.39;nan;-24710.03;4978759;28;20652;-60
2022/07/21 08:52:52;;;;;;;3.88;2.40;;;;;;;32.33;nan;-24708.41;4977875;28;20280;-61
2022/07/21 08:55:19;;;;;;;5.10;2.90;;;;;;;32.45;nan;-24711.53;4978969;28;20739;-60
2022/07/21 08:57:44;;;;;;;3.28;2.58;;;;;;;32.61;nan;-24715.88;4978474;28;20196;-60
2022/07/21 09:00:11;;;;;;;2.85;2.20;;;;;;;32.66;nan;-24717.22;4979994;28;20185;-59
2022/07/21 09:02:40;;;;;;;2.33;2.10;;;;;;;33.01;nan;-24726.59;4979504;28;20184;-59
2022/07/21 09:05:08;;;;;;;2.83;2.22;;;;;;;32.86;nan;-24722.66;4975314;28;20192;-59
2022/07/21 09:07:54;;;;;;;3.35;2.70;;;;;;;32.81;nan;-24721.16;4977661;28;20275;-59
2022/07/21 09:10:26;;;;;;;3.15;2.42;;;;;;;32.66;nan;-24717.09;4981639;28;20208;-60
2022/07/21 09:13:00;;;;;;;3.15;2.22;;;;;;;33.01;nan;-24726.44;4977546;28;20180;-60
2022/07/21 09:15:27;;;;;;;2.88;2.35;;;;;;;33.04;nan;-24727.25;4982101;28;20183;-60
2022/07/21 09:18:16;;;;;;;2.67;1.98;;;;;;;33.16;nan;-24730.66;4974605;28;20188;-59
2022/07/21 09:20:50;;;;;;;3.05;2.47;;;;;;;33.17;nan;-24730.91;4977962;28;20566;-61
2022/07/21 09:23:18;;;;;;;4.80;2.35;;;;;;;33.24;nan;-24732.81;4978324;28;20216;-61
2022/07/21 09:25:46;;;;;;;2.75;2.20;;;;;;;33.33;nan;-24734.97;4974889;28;20283;-61
2022/07/21 09:28:18;;;;;;;4.38;2.30;;;;;;;33.50;nan;-24739.59;4977664;28;20188;-60
2022/07/21 09:31:03;;;;;;;3.53;2.30;;;;;;;33.64;nan;-24743.38;4977899;28;20215;-60
2022/07/21 09:33:33;;;;;;;2.35;2.05;;;;;;;33.44;nan;-24738.09;4977176;28;20184;-61
2022/07/21 09:36:04;;;;;;;2.67;2.13;;;;;;;33.53;nan;-24740.53;4972925;28;20204;-60
2022/07/21 09:38:31;;;;;;;3.42;2.30;;;;;;;33.42;nan;-24737.56;4971434;28;20612;-61
2022/07/21 09:41:21;;;;;;;3.75;2.40;;;;;;;33.61;nan;-24742.56;4975043;28;20204;-60
2022/07/21 09:43:54;;;;;;;2.88;2.42;;;;;;;33.66;nan;-24743.91;4970000;28;20567;-60
2022/07/21 09:46:28;;;;;;;2.80;2.30;;;;;;;33.71;nan;-24745.41;4976446;28;20184;-62
2022/07/21 09:48:56;;;;;;;3.80;2.65;;;;;;;33.68;nan;-24744.47;4972844;28;20614;-60
2022/07/21 09:51:27;;;;;;;3.03;2.25;;;;;;;33.77;nan;-24746.75;4972557;28;20176;-60
2022/07/21 09:54:10;;;;;;;3.80;2.35;;;;;;;33.60;nan;-24742.44;4974883;28;20363;-61
2022/07/21 09:56:42;;;;;;;3.50;2.40;;;;;;;33.82;nan;-24748.13;4977214;28;20656;-60
2022/07/21 09:59:09;;;;;;;3.00;2.47;;;;;;;33.51;nan;-24740.00;4976602;28;20661;-60
2022/07/21 10:01:36;;;;;;;4.43;2.97;;;;;;;33.43;nan;-24737.69;4976403;28;20172;-61
2022/07/21 10:04:02;;;;;;;3.70;2.63;;;;;;;33.73;nan;-24745.94;4979559;28;20203;-61
2022/07/21 10:06:32;;;;;;;3.40;2.30;;;;;;;34.12;nan;-24756.38;4980670;28;20199;-60
2022/07/21 10:08:59;;;;;;;4.40;2.13;;;;;;;34.17;nan;-24757.72;4975918;28;20526;-60
2022/07/21 10:11:26;;;;;;;3.72;2.75;;;;;;;34.44;nan;-24764.75;4981736;28;20197;-61
2022/07/21 10:13:52;;;;;;;2.85;2.40;;;;;;;33.96;nan;-24752.03;4980639;28;20188;-60
2022/07/21 10:16:18;;;;;;;4.20;2.70;;;;;;;34.23;nan;-24759.06;4979709;28;20181;-61
2022/07/21 10:19:11;;;;;;;3.25;2.22;;;;;;;34.34;nan;-24762.06;4977201;28;20184;-60
2022/07/21 10:21:55;;;;;;;3.00;2.38;;;;;;;34.36;nan;-24762.72;4974034;28;20569;-60
2022/07/21 10:24:21;;;;;;;3.22;2.50;;;;;;;33.94;nan;-24751.50;4980641;28;20262;-59
2022/07/21 10:27:07;;;;;;;4.55;3.28;;;;;;;34.60;nan;-24769.06;4977569;28;20181;-59
2022/07/21 10:29:47;;;;;;;3.65;2.78;;;;;;;34.78;nan;-24773.94;4959283;28;20211;-61
2022/07/21 10:32:16;;;;;;;3.90;2.92;;;;;;;34.66;nan;-24770.69;4978341;28;20271;-60
2022/07/21 10:34:42;;;;;;;3.13;2.75;;;;;;;34.40;nan;-24763.81;4980593;28;20212;-60
2022/07/21 10:37:09;;;;;;;3.15;2.42;;;;;;;34.13;nan;-24756.63;4977594;28;20185;-60
2022/07/21 10:39:35;;;;;;;3.83;2.88;;;;;;;34.37;nan;-24762.84;4981096;28;20220;-59
2022/07/21 10:42:14;;;;;;;3.55;2.53;;;;;;;34.56;nan;-24768.13;4979339;28;20195;-60
2022/07/21 10:44:41;;;;;;;3.88;2.70;;;;;;;34.56;nan;-24768.00;4979691;28;20662;-59
2022/07/21 10:47:09;;;;;;;3.92;2.70;;;;;;;34.58;nan;-24768.53;4977414;28;20189;-60
2022/07/21 10:49:54;;;;;;;3.22;2.65;;;;;;;34.48;nan;-24765.84;4976986;28;20203;-60
2022/07/21 10:52:34;;;;;;;2.83;2.42;;;;;;;34.08;nan;-24755.28;4975177;28;20176;-60
2022/07/21 10:55:09;;;;;;;4.25;2.70;;;;;;;34.00;nan;-24752.97;4977491;28;20180;-61
2022/07/21 10:57:45;;;;;;;3.60;2.65;;;;;;;34.30;nan;-24761.09;4981481;28;20187;-61
2022/07/21 11:00:27;;;;;;;3.22;2.33;;;;;;;34.67;nan;-24770.84;4979974;28;20640;-61
2022/07/21 11:03:01;;;;;;;3.10;2.42;;;;;;;34.42;nan;-24764.22;4978981;28;20672;-60
2022/07/21 11:05:30;;;;;;;3.70;2.65;;;;;;;34.62;nan;-24769.63;4977332;28;20195;-60
2022/07/21 11:08:18;;;;;;;3.63;2.70;;;;;;;34.85;nan;-24775.81;4974505;28;20263;-59
2022/07/21 11:10:53;;;;;;;4.10;2.53;;;;;;;34.89;nan;-24776.78;4979399;28;20238;-61
2022/07/21 11:13:22;;;;;;;3.72;2.47;;;;;;;34.75;nan;-24773.00;4976847;28;20276;-60
2022/07/21 11:15:55;;;;;;;3.83;2.53;;;;;;;34.90;nan;-24777.19;4979329;28;20193;-61
2022/07/21 11:18:23;;;;;;;2.63;2.17;;;;;;;34.80;nan;-24774.47;4977150;28;20209;-62
2022/07/21 11:21:09;;;;;;;2.58;2.10;;;;;;;35.21;nan;-24785.28;4978675;28;20188;-61
2022/07/21 11:23:49;;;;;;;2.97;2.28;;;;;;;35.26;nan;-24786.63;4980164;28;20201;-60
2022/07/21 11:26:22;;;;;;;2.83;2.40;;;;;;;35.01;nan;-24780.00;4980455;28;20180;-60
2022/07/21 11:29:04;;;;;;;2.95;2.22;;;;;;;35.10;nan;-24782.44;4980386;28;20205;-59
2022/07/21 11:31:29;;;;;;;4.75;2.47;;;;;;;35.29;nan;-24787.44;4971539;28;20176;-60
2022/07/21 11:33:55;;;;;;;3.40;2.67;;;;;;;35.29;nan;-24787.56;4965419;28;20200;-60
2022/07/21 11:36:29;;;;;;;3.25;2.53;;;;;;;35.15;nan;-24783.66;4975256;28;20696;-59
2022/07/21 11:39:10;;;;;;;3.53;2.50;;;;;;;35.39;nan;-24790.13;4974360;28;20306;-60
2022/07/21 11:41:37;;;;;;;4.10;2.80;;;;;;;34.95;nan;-24778.53;4977886;28;20202;-60
2022/07/21 11:44:07;;;;;;;5.45;2.60;;;;;;;34.83;nan;-24775.28;4978772;28;20195;-60
2022/07/21 11:46:50;;;;;;;3.67;2.70;;;;;;;35.10;nan;-24782.44;4974352;28;20568;-62
2022/07/21 11:49:17;;;;;;;3.85;2.65;;;;;;;35.17;nan;-24784.34;4979950;28;20204;-59
2022/07/21 11:51:51;;;;;;;3.30;2.40;;;;;;;35.40;nan;-24790.41;4978031;28;20211;-62
2022/07/21 11:54:24;;;;;;;3.15;2.40;;;;;;;35.24;nan;-24786.22;4970238;28;20179;-61